sensor_id;sensor_type;location;lat;lon;timestamp;pressure;altitude;pressure_sealevel;temperature;humidity
11038;BME280;5572;49.540;11.932;2023-07-31T00:01:31;95336.25;;;13.60;100.00
11038;BME280;5572;49.540;11.932;2023-07-31T00:03:58;95321.88;;;13.47;100.00
11038;BME280;5572;49.540;11.932;2023-07-31T00:06:24;95311.75;;;13.36;100.00
11038;BME280;5572;49.540;11.932;2023-07-31T00:08:51;95301.78;;;13.28;100.00
11038;BME280;5572;49.540;11.932;2023-07-31T00:11:18;95300.53;;;13.13;100.00
11038;BME280;5572;49.540;11.932;2023-07-31T00:13:45;95302.41;;;13.01;100.00
11038;BME280;5572;49.540;11.932;2023-07-31T00:16:11;95279.78;;;12.97;100.00
11038;BME280;5572;49.540;11.932;2023-07-31T00:18:38;95276.34;;;12.88;100.00
11038;BME280;5572;49.540;11.932;2023-07-31T00:21:04;95279.25;;;12.83;100.00
11038;BME280;5572;49.540;11.932;2023-07-31T00:23:31;95269.09;;;12.80;100.00
11038;BME280;5572;49.540;11.932;2023-07-31T00:25:58;95273.34;;;12.69;100.00
11038;BME280;5572;49.540;11.932;2023-07-31T00:28:26;95228.56;;;12.63;100.00
11038;BME280;5572;49.540;11.932;2023-07-31T00:30:53;95222.03;;;12.64;100.00
11038;BME280;5572;49.540;11.932;2023-07-31T00:33:20;95216.03;;;12.59;100.00
11038;BME280;5572;49.540;11.932;2023-07-31T00:35:48;95194.13;;;12.64;100.00
11038;BME280;5572;49.540;11.932;2023-07-31T00:38:15;95181.50;;;12.80;100.00
11038;BME280;5572;49.540;11.932;2023-07-31T00:40:41;95187.91;;;12.63;100.00
11038;BME280;5572;49.540;11.932;2023-07-31T00:43:08;95182.06;;;12.61;100.00
11038;BME280;5572;49.540;11.932;2023-07-31T00:45:35;95159.59;;;12.73;100.00
11038;BME280;5572;49.540;11.932;2023-07-31T00:48:02;95151.91;;;12.75;100.00
11038;BME280;5572;49.540;11.932;2023-07-31T00:50:31;95144.00;;;12.82;100.00
11038;BME280;5572;49.540;11.932;2023-07-31T00:52:59;95139.16;;;12.87;100.00
11038;BME280;5572;49.540;11.932;2023-07-31T00:55:26;95158.34;;;12.70;100.00
11038;BME280;5572;49.540;11.932;2023-07-31T00:57:52;95171.47;;;12.36;100.00
11038;BME280;5572;49.540;11.932;2023-07-31T01:00:21;95168.41;;;12.37;100.00
11038;BME280;5572;49.540;11.932;2023-07-31T01:02:50;95161.88;;;12.38;100.00
11038;BME280;5572;49.540;11.932;2023-07-31T01:05:18;95167.72;;;12.28;100.00
11038;BME280;5572;49.540;11.932;2023-07-31T01:07:52;95161.50;;;12.28;100.00
11038;BME280;5572;49.540;11.932;2023-07-31T01:10:25;95152.59;;;12.27;100.00
11038;BME280;5572;49.540;11.932;2023-07-31T01:12:53;95147.88;;;12.36;100.00
11038;BME280;5572;49.540;11.932;2023-07-31T01:15:20;95141.56;;;12.32;100.00
11038;BME280;5572;49.540;11.932;2023-07-31T01:17:48;95144.25;;;12.32;100.00
11038;BME280;5572;49.540;11.932;2023-07-31T01:20:18;95130.19;;;12.63;100.00
11038;BME280;5572;49.540;11.932;2023-07-31T01:22:59;95127.16;;;12.64;100.00
11038;BME280;5572;49.540;11.932;2023-07-31T01:25:56;95127.81;;;12.49;100.00
11038;BME280;5572;49.540;11.932;2023-07-31T01:28:32;95108.06;;;12.73;100.00
11038;BME280;5572;49.540;11.932;2023-07-31T01:31:01;95084.03;;;12.95;100.00
11038;BME280;5572;49.540;11.932;2023-07-31T01:33:29;95085.06;;;12.90;100.00
11038;BME280;5572;49.540;11.932;2023-07-31T01:35:56;95080.00;;;13.01;100.00
11038;BME280;5572;49.540;11.932;2023-07-31T01:38:23;95067.22;;;13.01;100.00
11038;BME280;5572;49.540;11.932;2023-07-31T01:40:51;95054.84;;;13.40;100.00
11038;BME280;5572;49.540;11.932;2023-07-31T01:43:19;95059.22;;;13.44;100.00
11038;BME280;5572;49.540;11.932;2023-07-31T01:45:46;95063.84;;;13.44;100.00
11038;BME280;5572;49.540;11.932;2023-07-31T01:48:12;95065.34;;;13.80;100.00
11038;BME280;5572;49.540;11.932;2023-07-31T01:50:39;95057.38;;;13.87;100.00
11038;BME280;5572;49.540;11.932;2023-07-31T01:53:05;95055.75;;;13.98;100.00
11038;BME280;5572;49.540;11.932;2023-07-31T01:55:32;95051.53;;;14.01;100.00
11038;BME280;5572;49.540;11.932;2023-07-31T01:57:58;95062.88;;;13.64;100.00
11038;BME280;5572;49.540;11.932;2023-07-31T02:00:26;95058.25;;;13.25;100.00
11038;BME280;5572;49.540;11.932;2023-07-31T02:02:53;95052.34;;;13.35;100.00
11038;BME280;5572;49.540;11.932;2023-07-31T02:05:19;95061.28;;;13.35;100.00
11038;BME280;5572;49.540;11.932;2023-07-31T02:07:46;95057.53;;;13.40;100.00
11038;BME280;5572;49.540;11.932;2023-07-31T02:10:12;95057.91;;;13.66;100.00
11038;BME280;5572;49.540;11.932;2023-07-31T02:12:39;95064.56;;;13.41;100.00
11038;BME280;5572;49.540;11.932;2023-07-31T02:15:06;95058.41;;;13.44;100.00
11038;BME280;5572;49.540;11.932;2023-07-31T02:17:34;95044.69;;;13.64;100.00
11038;BME280;5572;49.540;11.932;2023-07-31T02:20:01;95042.22;;;13.86;100.00
11038;BME280;5572;49.540;11.932;2023-07-31T02:22:28;95036.97;;;14.21;100.00
11038;BME280;5572;49.540;11.932;2023-07-31T02:24:54;95028.03;;;14.20;100.00
11038;BME280;5572;49.540;11.932;2023-07-31T02:27:21;95025.50;;;14.27;100.00
11038;BME280;5572;49.540;11.932;2023-07-31T02:29:49;95015.25;;;14.52;100.00
11038;BME280;5572;49.540;11.932;2023-07-31T02:32:15;95020.06;;;14.58;100.00
11038;BME280;5572;49.540;11.932;2023-07-31T02:34:43;95025.97;;;14.60;100.00
11038;BME280;5572;49.540;11.932;2023-07-31T02:37:10;95029.72;;;14.56;100.00
11038;BME280;5572;49.540;11.932;2023-07-31T02:39:36;95036.13;;;14.48;100.00
11038;BME280;5572;49.540;11.932;2023-07-31T02:42:04;95049.00;;;14.35;100.00
11038;BME280;5572;49.540;11.932;2023-07-31T02:44:31;95036.63;;;14.38;100.00
11038;BME280;5572;49.540;11.932;2023-07-31T02:46:57;95037.25;;;14.31;100.00
11038;BME280;5572;49.540;11.932;2023-07-31T02:49:24;95038.66;;;14.25;100.00
11038;BME280;5572;49.540;11.932;2023-07-31T02:51:52;95038.03;;;14.32;100.00
11038;BME280;5572;49.540;11.932;2023-07-31T02:54:18;95039.97;;;14.31;100.00
11038;BME280;5572;49.540;11.932;2023-07-31T02:56:46;95041.97;;;14.19;100.00
11038;BME280;5572;49.540;11.932;2023-07-31T02:59:13;95038.91;;;14.20;100.00
11038;BME280;5572;49.540;11.932;2023-07-31T03:01:40;95035.25;;;14.28;100.00
11038;BME280;5572;49.540;11.932;2023-07-31T03:04:06;95032.78;;;14.39;100.00
11038;BME280;5572;49.540;11.932;2023-07-31T03:06:33;95048.16;;;14.47;100.00
11038;BME280;5572;49.540;11.932;2023-07-31T03:09:01;95052.53;;;14.51;100.00
11038;BME280;5572;49.540;11.932;2023-07-31T03:11:28;95056.31;;;14.62;100.00
11038;BME280;5572;49.540;11.932;2023-07-31T03:13:54;95061.38;;;14.48;100.00
11038;BME280;5572;49.540;11.932;2023-07-31T03:16:21;95060.31;;;14.37;100.00
11038;BME280;5572;49.540;11.932;2023-07-31T03:18:47;95062.34;;;14.40;100.00
11038;BME280;5572;49.540;11.932;2023-07-31T03:21:14;95060.47;;;14.29;100.00
11038;BME280;5572;49.540;11.932;2023-07-31T03:23:41;95067.16;;;14.31;100.00
11038;BME280;5572;49.540;11.932;2023-07-31T03:26:10;95064.53;;;14.35;100.00
11038;BME280;5572;49.540;11.932;2023-07-31T03:28:37;95058.59;;;14.45;100.00
11038;BME280;5572;49.540;11.932;2023-07-31T03:31:03;95060.16;;;14.46;100.00
11038;BME280;5572;49.540;11.932;2023-07-31T03:33:30;95063.56;;;14.43;100.00
11038;BME280;5572;49.540;11.932;2023-07-31T03:35:57;95079.38;;;14.53;100.00
11038;BME280;5572;49.540;11.932;2023-07-31T03:38:23;95080.88;;;14.50;100.00
11038;BME280;5572;49.540;11.932;2023-07-31T03:40:50;95086.13;;;14.74;100.00
11038;BME280;5572;49.540;11.932;2023-07-31T03:43:18;95082.09;;;14.99;100.00
11038;BME280;5572;49.540;11.932;2023-07-31T03:45:44;95094.28;;;15.20;100.00
11038;BME280;5572;49.540;11.932;2023-07-31T03:48:11;95112.63;;;15.23;100.00
11038;BME280;5572;49.540;11.932;2023-07-31T03:50:38;95128.88;;;15.20;100.00
11038;BME280;5572;49.540;11.932;2023-07-31T03:53:04;95138.38;;;15.26;100.00
11038;BME280;5572;49.540;11.932;2023-07-31T03:55:31;95161.53;;;15.20;100.00
11038;BME280;5572;49.540;11.932;2023-07-31T03:57:58;95154.72;;;15.26;100.00
11038;BME280;5572;49.540;11.932;2023-07-31T04:00:27;95169.34;;;15.21;100.00
11038;BME280;5572;49.540;11.932;2023-07-31T04:02:53;95184.19;;;15.24;100.00
11038;BME280;5572;49.540;11.932;2023-07-31T04:05:20;95185.47;;;15.42;100.00
11038;BME280;5572;49.540;11.932;2023-07-31T04:07:46;95192.38;;;15.39;100.00
11038;BME280;5572;49.540;11.932;2023-07-31T04:10:13;95203.63;;;15.38;100.00
11038;BME280;5572;49.540;11.932;2023-07-31T04:12:40;95207.84;;;15.35;100.00
11038;BME280;5572;49.540;11.932;2023-07-31T04:15:07;95222.63;;;15.34;100.00
11038;BME280;5572;49.540;11.932;2023-07-31T04:17:35;95245.78;;;15.44;100.00
11038;BME280;5572;49.540;11.932;2023-07-31T04:20:01;95274.06;;;15.39;100.00
11038;BME280;5572;49.540;11.932;2023-07-31T04:22:28;95288.50;;;15.40;100.00
11038;BME280;5572;49.540;11.932;2023-07-31T04:24:55;95291.31;;;15.43;100.00
11038;BME280;5572;49.540;11.932;2023-07-31T04:27:21;95315.91;;;15.47;100.00
11038;BME280;5572;49.540;11.932;2023-07-31T04:29:48;95319.59;;;15.39;100.00
11038;BME280;5572;49.540;11.932;2023-07-31T04:32:14;95323.19;;;15.43;100.00
11038;BME280;5572;49.540;11.932;2023-07-31T04:34:43;95324.06;;;15.47;100.00
11038;BME280;5572;49.540;11.932;2023-07-31T04:37:10;95339.63;;;15.46;100.00
11038;BME280;5572;49.540;11.932;2023-07-31T04:39:36;95343.50;;;15.45;100.00
11038;BME280;5572;49.540;11.932;2023-07-31T04:42:03;95360.63;;;15.46;100.00
11038;BME280;5572;49.540;11.932;2023-07-31T04:44:30;95364.69;;;15.52;100.00
11038;BME280;5572;49.540;11.932;2023-07-31T04:46:56;95360.91;;;15.56;100.00
11038;BME280;5572;49.540;11.932;2023-07-31T04:49:23;95372.59;;;15.72;100.00
11038;BME280;5572;49.540;11.932;2023-07-31T04:51:51;95360.13;;;15.86;100.00
11038;BME280;5572;49.540;11.932;2023-07-31T04:54:17;95360.91;;;16.02;100.00
11038;BME280;5572;49.540;11.932;2023-07-31T04:56:44;95368.75;;;16.04;100.00
11038;BME280;5572;49.540;11.932;2023-07-31T04:59:10;95378.59;;;16.08;100.00
11038;BME280;5572;49.540;11.932;2023-07-31T05:01:37;95387.47;;;16.05;100.00
11038;BME280;5572;49.540;11.932;2023-07-31T05:04:04;95396.09;;;16.53;100.00
11038;BME280;5572;49.540;11.932;2023-07-31T05:06:30;95422.16;;;16.20;100.00
11038;BME280;5572;49.540;11.932;2023-07-31T05:08:58;95418.81;;;16.11;100.00
11038;BME280;5572;49.540;11.932;2023-07-31T05:11:25;95429.97;;;16.06;100.00
11038;BME280;5572;49.540;11.932;2023-07-31T05:13:52;95434.72;;;16.09;100.00
11038;BME280;5572;49.540;11.932;2023-07-31T05:16:18;95446.31;;;16.06;100.00
11038;BME280;5572;49.540;11.932;2023-07-31T05:18:45;95450.88;;;16.18;100.00
11038;BME280;5572;49.540;11.932;2023-07-31T05:21:11;95443.69;;;16.25;100.00
11038;BME280;5572;49.540;11.932;2023-07-31T05:23:38;95451.19;;;16.28;100.00
11038;BME280;5572;49.540;11.932;2023-07-31T05:26:06;95451.91;;;16.40;100.00
11038;BME280;5572;49.540;11.932;2023-07-31T05:28:35;95465.91;;;16.39;100.00
11038;BME280;5572;49.540;11.932;2023-07-31T05:31:02;95471.34;;;16.54;100.00
11038;BME280;5572;49.540;11.932;2023-07-31T05:33:29;95473.56;;;16.64;100.00
11038;BME280;5572;49.540;11.932;2023-07-31T05:35:56;95476.88;;;16.89;100.00
11038;BME280;5572;49.540;11.932;2023-07-31T05:38:23;95482.63;;;17.03;100.00
11038;BME280;5572;49.540;11.932;2023-07-31T05:40:49;95489.94;;;17.48;100.00
11038;BME280;5572;49.540;11.932;2023-07-31T05:43:17;95513.84;;;17.70;100.00
11038;BME280;5572;49.540;11.932;2023-07-31T05:45:43;95490.38;;;18.71;100.00
11038;BME280;5572;49.540;11.932;2023-07-31T05:48:10;95552.31;;;17.81;100.00
11038;BME280;5572;49.540;11.932;2023-07-31T05:50:36;95557.41;;;17.63;100.00
11038;BME280;5572;49.540;11.932;2023-07-31T05:53:04;95538.63;;;18.56;100.00
11038;BME280;5572;49.540;11.932;2023-07-31T05:55:31;95597.69;;;18.38;100.00
11038;BME280;5572;49.540;11.932;2023-07-31T05:57:57;95611.34;;;18.57;100.00
11038;BME280;5572;49.540;11.932;2023-07-31T06:00:25;95619.47;;;19.14;100.00
11038;BME280;5572;49.540;11.932;2023-07-31T06:02:52;95646.47;;;19.60;100.00
11038;BME280;5572;49.540;11.932;2023-07-31T06:05:19;95730.22;;;19.13;100.00
11038;BME280;5572;49.540;11.932;2023-07-31T06:07:46;95780.81;;;18.28;100.00
11038;BME280;5572;49.540;11.932;2023-07-31T06:10:12;95793.81;;;17.85;100.00
11038;BME280;5572;49.540;11.932;2023-07-31T06:12:39;95782.03;;;18.15;100.00
11038;BME280;5572;49.540;11.932;2023-07-31T06:15:06;95794.63;;;18.19;100.00
11038;BME280;5572;49.540;11.932;2023-07-31T06:17:34;95787.88;;;18.29;100.00
11038;BME280;5572;49.540;11.932;2023-07-31T06:20:01;95805.78;;;18.11;100.00
11038;BME280;5572;49.540;11.932;2023-07-31T06:22:30;95801.63;;;18.32;100.00
11038;BME280;5572;49.540;11.932;2023-07-31T06:24:57;95809.13;;;18.35;100.00
11038;BME280;5572;49.540;11.932;2023-07-31T06:27:23;95807.63;;;18.38;100.00
11038;BME280;5572;49.540;11.932;2023-07-31T06:29:50;95785.06;;;18.98;100.00
11038;BME280;5572;49.540;11.932;2023-07-31T06:32:17;95795.00;;;19.43;100.00
11038;BME280;5572;49.540;11.932;2023-07-31T06:34:45;95841.19;;;18.69;100.00
11038;BME280;5572;49.540;11.932;2023-07-31T06:37:12;95847.13;;;18.56;100.00
11038;BME280;5572;49.540;11.932;2023-07-31T06:39:38;95843.66;;;18.74;100.00
11038;BME280;5572;49.540;11.932;2023-07-31T06:42:05;95830.94;;;19.38;100.00
11038;BME280;5572;49.540;11.932;2023-07-31T06:44:32;95850.25;;;19.07;100.00
11038;BME280;5572;49.540;11.932;2023-07-31T06:46:58;95839.22;;;19.83;100.00
11038;BME280;5572;49.540;11.932;2023-07-31T06:49:25;95862.69;;;19.81;100.00
11038;BME280;5572;49.540;11.932;2023-07-31T06:51:52;95840.53;;;20.85;100.00
11038;BME280;5572;49.540;11.932;2023-07-31T06:54:19;95842.34;;;21.33;100.00
11038;BME280;5572;49.540;11.932;2023-07-31T06:56:46;95859.09;;;21.54;100.00
11038;BME280;5572;49.540;11.932;2023-07-31T06:59:12;95929.38;;;20.71;100.00
11038;BME280;5572;49.540;11.932;2023-07-31T07:01:39;95966.78;;;20.34;100.00
11038;BME280;5572;49.540;11.932;2023-07-31T07:06:33;96011.09;;;19.94;100.00
11038;BME280;5572;49.540;11.932;2023-07-31T07:09:01;96046.88;;;19.64;100.00
11038;BME280;5572;49.540;11.932;2023-07-31T07:11:28;96035.94;;;19.83;100.00
11038;BME280;5572;49.540;11.932;2023-07-31T07:13:54;96059.59;;;19.90;100.00
11038;BME280;5572;49.540;11.932;2023-07-31T07:16:21;96069.81;;;19.90;100.00
11038;BME280;5572;49.540;11.932;2023-07-31T07:18:48;96036.63;;;20.55;100.00
11038;BME280;5572;49.540;11.932;2023-07-31T07:21:14;96066.63;;;19.88;100.00
11038;BME280;5572;49.540;11.932;2023-07-31T07:23:43;96058.63;;;20.36;100.00
11038;BME280;5572;49.540;11.932;2023-07-31T07:26:11;96086.66;;;20.07;100.00
11038;BME280;5572;49.540;11.932;2023-07-31T07:28:38;96099.81;;;19.83;100.00
11038;BME280;5572;49.540;11.932;2023-07-31T07:31:04;96113.03;;;19.62;100.00
11038;BME280;5572;49.540;11.932;2023-07-31T07:33:31;96111.78;;;19.75;100.00
11038;BME280;5572;49.540;11.932;2023-07-31T07:36:00;96112.28;;;19.96;100.00
11038;BME280;5572;49.540;11.932;2023-07-31T07:38:27;96119.00;;;19.83;100.00
11038;BME280;5572;49.540;11.932;2023-07-31T07:40:53;96140.22;;;19.67;100.00
11038;BME280;5572;49.540;11.932;2023-07-31T07:43:21;96133.53;;;19.84;100.00
11038;BME280;5572;49.540;11.932;2023-07-31T07:45:48;96134.97;;;19.62;100.00
11038;BME280;5572;49.540;11.932;2023-07-31T07:48:14;96158.56;;;19.82;100.00
11038;BME280;5572;49.540;11.932;2023-07-31T07:50:42;96139.81;;;19.84;100.00
11038;BME280;5572;49.540;11.932;2023-07-31T07:53:09;96155.34;;;19.61;100.00
11038;BME280;5572;49.540;11.932;2023-07-31T07:55:35;96154.34;;;19.85;100.00
11038;BME280;5572;49.540;11.932;2023-07-31T07:58:02;96163.28;;;19.97;100.00
11038;BME280;5572;49.540;11.932;2023-07-31T08:00:29;96147.13;;;20.30;100.00
11038;BME280;5572;49.540;11.932;2023-07-31T08:02:56;96153.91;;;20.17;100.00
11038;BME280;5572;49.540;11.932;2023-07-31T08:05:23;96174.78;;;20.21;100.00
11038;BME280;5572;49.540;11.932;2023-07-31T08:07:50;96169.44;;;20.47;100.00
11038;BME280;5572;49.540;11.932;2023-07-31T08:10:16;96212.88;;;20.07;100.00
11038;BME280;5572;49.540;11.932;2023-07-31T08:12:43;96204.34;;;19.78;100.00
11038;BME280;5572;49.540;11.932;2023-07-31T08:15:10;96205.09;;;20.09;100.00
11038;BME280;5572;49.540;11.932;2023-07-31T08:17:38;96206.53;;;20.03;100.00
11038;BME280;5572;49.540;11.932;2023-07-31T08:20:06;96201.41;;;20.02;100.00
11038;BME280;5572;49.540;11.932;2023-07-31T08:22:33;96194.41;;;20.39;100.00
11038;BME280;5572;49.540;11.932;2023-07-31T08:24:59;96197.72;;;20.48;100.00
11038;BME280;5572;49.540;11.932;2023-07-31T08:27:26;96163.53;;;20.83;100.00
11038;BME280;5572;49.540;11.932;2023-07-31T08:29:52;96158.03;;;21.69;100.00
11038;BME280;5572;49.540;11.932;2023-07-31T08:32:19;96165.97;;;20.69;100.00
11038;BME280;5572;49.540;11.932;2023-07-31T08:34:47;96161.16;;;20.81;100.00
11038;BME280;5572;49.540;11.932;2023-07-31T08:37:14;96166.88;;;21.37;100.00
11038;BME280;5572;49.540;11.932;2023-07-31T08:39:40;96155.88;;;21.37;100.00
11038;BME280;5572;49.540;11.932;2023-07-31T08:42:08;96166.16;;;21.40;100.00
11038;BME280;5572;49.540;11.932;2023-07-31T08:44:34;96153.34;;;21.25;100.00
11038;BME280;5572;49.540;11.932;2023-07-31T08:47:01;96193.97;;;21.35;100.00
11038;BME280;5572;49.540;11.932;2023-07-31T08:49:28;96218.56;;;20.86;100.00
11038;BME280;5572;49.540;11.932;2023-07-31T08:51:56;96203.59;;;21.48;100.00
11038;BME280;5572;49.540;11.932;2023-07-31T08:54:23;96203.28;;;21.08;100.00
11038;BME280;5572;49.540;11.932;2023-07-31T08:56:50;96185.44;;;20.98;100.00
11038;BME280;5572;49.540;11.932;2023-07-31T08:59:19;96198.66;;;21.34;100.00
11038;BME280;5572;49.540;11.932;2023-07-31T09:01:49;96172.63;;;21.73;100.00
11038;BME280;5572;49.540;11.932;2023-07-31T09:04:18;96214.56;;;21.44;100.00
11038;BME280;5572;49.540;11.932;2023-07-31T09:06:46;96207.66;;;21.54;100.00
11038;BME280;5572;49.540;11.932;2023-07-31T09:09:15;96184.06;;;21.30;100.00
11038;BME280;5572;49.540;11.932;2023-07-31T09:11:42;96183.91;;;21.65;100.00
11038;BME280;5572;49.540;11.932;2023-07-31T09:14:10;96169.91;;;21.76;100.00
11038;BME280;5572;49.540;11.932;2023-07-31T09:16:51;96184.97;;;21.15;100.00
11038;BME280;5572;49.540;11.932;2023-07-31T09:19:24;96182.53;;;21.33;100.00
11038;BME280;5572;49.540;11.932;2023-07-31T09:21:51;96209.38;;;21.62;100.00
11038;BME280;5572;49.540;11.932;2023-07-31T09:24:26;96179.72;;;21.52;100.00
11038;BME280;5572;49.540;11.932;2023-07-31T09:26:54;96206.50;;;21.55;100.00
11038;BME280;5572;49.540;11.932;2023-07-31T09:29:21;96149.19;;;22.34;100.00
11038;BME280;5572;49.540;11.932;2023-07-31T09:31:47;96093.94;;;22.53;100.00
11038;BME280;5572;49.540;11.932;2023-07-31T09:34:14;96100.91;;;22.47;100.00
11038;BME280;5572;49.540;11.932;2023-07-31T09:36:41;96098.22;;;22.51;100.00
11038;BME280;5572;49.540;11.932;2023-07-31T09:39:09;96168.50;;;22.38;100.00
11038;BME280;5572;49.540;11.932;2023-07-31T09:41:38;96126.50;;;23.17;100.00
11038;BME280;5572;49.540;11.932;2023-07-31T09:44:05;96112.31;;;22.78;100.00
11038;BME280;5572;49.540;11.932;2023-07-31T09:46:32;96147.47;;;22.56;100.00
11038;BME280;5572;49.540;11.932;2023-07-31T09:49:05;96130.38;;;22.40;100.00
11038;BME280;5572;49.540;11.932;2023-07-31T09:51:32;96164.03;;;22.88;100.00
11038;BME280;5572;49.540;11.932;2023-07-31T09:54:03;96149.22;;;22.38;100.00
11038;BME280;5572;49.540;11.932;2023-07-31T09:56:31;96086.13;;;23.38;100.00
11038;BME280;5572;49.540;11.932;2023-07-31T09:59:01;96063.13;;;23.20;100.00
11038;BME280;5572;49.540;11.932;2023-07-31T10:01:30;96094.69;;;22.86;100.00
11038;BME280;5572;49.540;11.932;2023-07-31T10:03:58;96127.25;;;22.74;100.00
11038;BME280;5572;49.540;11.932;2023-07-31T10:06:25;96170.25;;;22.53;100.00
11038;BME280;5572;49.540;11.932;2023-07-31T10:08:52;96112.66;;;23.10;100.00
11038;BME280;5572;49.540;11.932;2023-07-31T10:11:21;96099.31;;;22.79;100.00
11038;BME280;5572;49.540;11.932;2023-07-31T10:13:49;96137.97;;;21.94;100.00
11038;BME280;5572;49.540;11.932;2023-07-31T10:16:17;96204.31;;;22.67;100.00
11038;BME280;5572;49.540;11.932;2023-07-31T10:18:45;96143.41;;;23.08;100.00
11038;BME280;5572;49.540;11.932;2023-07-31T10:21:13;96163.91;;;22.81;100.00
11038;BME280;5572;49.540;11.932;2023-07-31T10:23:41;96119.44;;;23.16;100.00
11038;BME280;5572;49.540;11.932;2023-07-31T10:26:10;96103.88;;;23.41;100.00
11038;BME280;5572;49.540;11.932;2023-07-31T10:28:38;96135.13;;;22.75;100.00
11038;BME280;5572;49.540;11.932;2023-07-31T10:31:05;96135.88;;;22.72;100.00
11038;BME280;5572;49.540;11.932;2023-07-31T10:33:34;96131.81;;;22.96;100.00
11038;BME280;5572;49.540;11.932;2023-07-31T10:36:13;96124.13;;;23.12;100.00
11038;BME280;5572;49.540;11.932;2023-07-31T10:38:41;96096.38;;;23.01;100.00
11038;BME280;5572;49.540;11.932;2023-07-31T10:41:08;96132.28;;;22.68;100.00
11038;BME280;5572;49.540;11.932;2023-07-31T10:43:36;96112.41;;;23.22;100.00
11038;BME280;5572;49.540;11.932;2023-07-31T10:46:06;96168.13;;;22.68;100.00
11038;BME280;5572;49.540;11.932;2023-07-31T10:48:34;96201.38;;;22.27;100.00
11038;BME280;5572;49.540;11.932;2023-07-31T10:51:07;96083.72;;;23.80;100.00
11038;BME280;5572;49.540;11.932;2023-07-31T10:53:35;96098.78;;;24.67;100.00
11038;BME280;5572;49.540;11.932;2023-07-31T10:56:03;96052.03;;;24.34;100.00
11038;BME280;5572;49.540;11.932;2023-07-31T10:58:31;96089.91;;;23.20;100.00
11038;BME280;5572;49.540;11.932;2023-07-31T11:00:59;96133.53;;;24.01;100.00
11038;BME280;5572;49.540;11.932;2023-07-31T11:03:29;96069.03;;;23.22;100.00
11038;BME280;5572;49.540;11.932;2023-07-31T11:06:08;96078.78;;;23.59;100.00
11038;BME280;5572;49.540;11.932;2023-07-31T11:08:35;96139.28;;;23.32;100.00
11038;BME280;5572;49.540;11.932;2023-07-31T11:11:08;96186.06;;;24.08;100.00
11038;BME280;5572;49.540;11.932;2023-07-31T11:13:40;96089.22;;;24.47;100.00
11038;BME280;5572;49.540;11.932;2023-07-31T11:16:07;96112.34;;;24.19;100.00
11038;BME280;5572;49.540;11.932;2023-07-31T11:18:34;96157.41;;;23.33;100.00
11038;BME280;5572;49.540;11.932;2023-07-31T11:21:01;96179.84;;;23.31;100.00
11038;BME280;5572;49.540;11.932;2023-07-31T11:23:30;96179.94;;;23.02;100.00
11038;BME280;5572;49.540;11.932;2023-07-31T11:25:59;96201.22;;;22.72;100.00
11038;BME280;5572;49.540;11.932;2023-07-31T11:28:31;96212.50;;;22.60;100.00
11038;BME280;5572;49.540;11.932;2023-07-31T11:30:59;96274.16;;;23.07;100.00
11038;BME280;5572;49.540;11.932;2023-07-31T11:33:26;96114.91;;;23.37;100.00
11038;BME280;5572;49.540;11.932;2023-07-31T11:35:55;96193.22;;;24.16;100.00
11038;BME280;5572;49.540;11.932;2023-07-31T11:38:22;96158.66;;;23.39;100.00
11038;BME280;5572;49.540;11.932;2023-07-31T11:40:53;96051.66;;;24.43;100.00
11038;BME280;5572;49.540;11.932;2023-07-31T11:43:21;96095.31;;;23.52;100.00
11038;BME280;5572;49.540;11.932;2023-07-31T11:45:49;96111.66;;;24.39;100.00
11038;BME280;5572;49.540;11.932;2023-07-31T11:48:20;96094.75;;;23.33;100.00
11038;BME280;5572;49.540;11.932;2023-07-31T11:50:49;96107.13;;;23.06;100.00
11038;BME280;5572;49.540;11.932;2023-07-31T11:53:21;96145.22;;;22.97;100.00
11038;BME280;5572;49.540;11.932;2023-07-31T11:55:51;96128.75;;;23.04;100.00
11038;BME280;5572;49.540;11.932;2023-07-31T11:58:19;96064.28;;;23.73;100.00
11038;BME280;5572;49.540;11.932;2023-07-31T12:00:46;96107.47;;;23.45;100.00
11038;BME280;5572;49.540;11.932;2023-07-31T12:03:13;96046.50;;;24.41;100.00
11038;BME280;5572;49.540;11.932;2023-07-31T12:05:40;96037.59;;;24.86;100.00
11038;BME280;5572;49.540;11.932;2023-07-31T12:08:10;96030.72;;;24.38;100.00
11038;BME280;5572;49.540;11.932;2023-07-31T12:10:38;96013.06;;;24.67;100.00
11038;BME280;5572;49.540;11.932;2023-07-31T12:13:11;96009.81;;;24.34;100.00
11038;BME280;5572;49.540;11.932;2023-07-31T12:15:40;96047.91;;;23.97;100.00
11038;BME280;5572;49.540;11.932;2023-07-31T12:18:09;96084.19;;;23.02;100.00
11038;BME280;5572;49.540;11.932;2023-07-31T12:20:40;96192.59;;;23.06;100.00
11038;BME280;5572;49.540;11.932;2023-07-31T12:23:13;96070.47;;;23.49;100.00
11038;BME280;5572;49.540;11.932;2023-07-31T12:25:40;96148.41;;;23.39;100.00
11038;BME280;5572;49.540;11.932;2023-07-31T12:28:08;96143.41;;;24.02;100.00
11038;BME280;5572;49.540;11.932;2023-07-31T12:30:38;96108.38;;;24.16;100.00
11038;BME280;5572;49.540;11.932;2023-07-31T12:33:06;96145.81;;;24.03;100.00
11038;BME280;5572;49.540;11.932;2023-07-31T12:35:37;96158.19;;;23.33;100.00
11038;BME280;5572;49.540;11.932;2023-07-31T12:38:04;96178.59;;;23.22;100.00
11038;BME280;5572;49.540;11.932;2023-07-31T12:40:31;96178.28;;;23.30;100.00
11038;BME280;5572;49.540;11.932;2023-07-31T12:43:01;96208.13;;;23.61;100.00
11038;BME280;5572;49.540;11.932;2023-07-31T12:45:30;96135.28;;;23.26;100.00
11038;BME280;5572;49.540;11.932;2023-07-31T12:47:57;96100.72;;;23.39;100.00
11038;BME280;5572;49.540;11.932;2023-07-31T12:50:23;96051.97;;;23.56;100.00
11038;BME280;5572;49.540;11.932;2023-07-31T12:52:50;96129.66;;;23.58;100.00
11038;BME280;5572;49.540;11.932;2023-07-31T12:55:17;96095.78;;;23.65;100.00